Terminal Aerodrome Forecast
Issued by NWS

Home | Current Version | Previous Version | Graphics & Text | Print | Product List | Glossary On
Versions: 1 2 3 4 5 6 7 8 9 10 11 12 13 14 15
278
FTUS43 KIWX 232330
TAFSBN
TAF
KSBN 232330Z 2400/2424 35005KT P6SM BKN100
     FM240900 34005KT P6SM BKN015
     FM241500 35010KT P6SM BKN025=

USA.gov is the U.S. government's official web portal to all federal, state and local government web resources and services.